Time;durP1;ratioP1;P1;durP2;ratioP2;P2;SDS_P1;SDS_P2;PMS_P1;PMS_P2;Temp;Humidity;BMP_temperature;BMP_pressure;BME280_temperature;BME280_humidity;BME280_pressure;Samples;Min_cycle;Max_cycle;Signal;HPM_P1;HPM_P2
2023/06/22 00:03:10;;;;;;;15.70;14.20;;;;;;;21.82;100.00;100925.70;5284128;54;1145418;-69
2023/06/22 00:08:18;;;;;;;17.32;13.22;;;;;;;21.97;100.00;100931.96;5294506;54;1145380;-73
2023/06/22 00:13:23;;;;;;;16.17;12.20;;;;;;;22.14;100.00;100942.94;5273737;54;1145158;-82
2023/06/22 00:18:30;;;;;;;17.30;12.55;;;;;;;22.27;100.00;100946.34;5140773;55;1145274;-79
2023/06/22 00:23:36;;;;;;;15.50;14.02;;;;;;;22.26;100.00;100939.27;5142517;55;1144933;-77
2023/06/22 00:28:42;;;;;;;16.23;13.30;;;;;;;22.16;100.00;100948.12;5259147;54;1145388;-71
2023/06/22 00:33:50;;;;;;;111.80;10.08;;;;;;;21.84;100.00;100955.48;5280510;54;1145328;-73
2023/06/22 00:38:55;;;;;;;8.74;7.32;;;;;;;21.53;100.00;100969.52;5286120;54;1147253;-75
2023/06/22 00:44:01;;;;;;;34.85;7.45;;;;;;;21.33;100.00;100974.02;5291738;54;1140848;-74
2023/06/22 00:49:09;;;;;;;9.73;8.33;;;;;;;21.39;100.00;100978.67;5255457;54;1143206;-80
2023/06/22 00:54:15;;;;;;;10.37;9.47;;;;;;;21.55;100.00;100979.06;5281222;54;1141419;-75
2023/06/22 00:59:21;;;;;;;14.15;12.80;;;;;;;21.75;100.00;100972.70;5286752;54;1143430;-70
2023/06/22 01:04:31;;;;;;;14.53;13.08;;;;;;;21.81;100.00;100977.38;5224041;54;1145098;-69
2023/06/22 01:09:54;;;;;;;15.73;11.53;;;;;;;21.83;100.00;100975.34;5194365;55;1144868;-73
2023/06/22 01:15:21;;;;;;;13.98;12.55;;;;;;;21.95;100.00;100979.78;5050375;56;1250172;-76
2023/06/22 01:20:28;;;;;;;14.80;13.28;;;;;;;22.02;100.00;100972.16;5073515;56;1145377;-72
2023/06/22 01:25:47;;;;;;;16.00;14.27;;;;;;;21.95;100.00;100964.46;5088306;56;1145352;-83
2023/06/22 01:31:03;;;;;;;28.40;15.58;;;;;;;21.91;100.00;100965.00;5182602;55;1145070;-81
2023/06/22 01:36:04;;;;;;;17.60;14.53;;;;;;;21.68;100.00;100970.42;5187287;55;1145086;-80
2023/06/22 01:41:11;;;;;;;27.65;15.35;;;;;;;21.49;100.00;100968.20;5205056;55;1145468;-83
2023/06/22 01:46:19;;;;;;;100.35;15.83;;;;;;;21.29;100.00;100972.69;5193875;54;1145455;-82
2023/06/22 01:51:25;;;;;;;33.28;13.53;;;;;;;21.13;100.00;100986.20;5253487;54;1147453;-80
2023/06/22 01:56:30;;;;;;;122.80;13.50;;;;;;;20.99;100.00;100991.81;5316222;54;1145257;-76
2023/06/22 02:01:43;;;;;;;126.10;13.10;;;;;;;20.81;100.00;100998.44;5273053;54;1147294;-80
2023/06/22 02:06:52;;;;;;;114.30;13.43;;;;;;;20.69;100.00;100993.95;5176382;55;1147204;-73
2023/06/22 02:12:00;;;;;;;64.55;10.18;;;;;;;20.66;100.00;100992.95;5192653;55;1147079;-77
2023/06/22 02:17:08;;;;;;;125.45;11.70;;;;;;;20.75;100.00;100989.23;5196698;55;1144990;-78
2023/06/22 02:22:14;;;;;;;155.17;11.53;;;;;;;20.75;100.00;100991.92;5213088;53;1147258;-77
2023/06/22 02:27:22;;;;;;;96.40;10.10;;;;;;;20.62;100.00;100998.36;5347050;53;1147176;-80
2023/06/22 02:32:27;;;;;;;47.73;8.88;;;;;;;20.59;100.00;101012.13;5259327;54;1145227;-81
2023/06/22 02:37:34;;;;;;;9.70;7.95;;;;;;;20.63;100.00;101018.31;5176219;54;1143125;-73
2023/06/22 02:42:40;;;;;;;7.72;7.12;;;;;;;20.66;100.00;101024.70;5194113;55;1140755;-79
2023/06/22 02:47:47;;;;;;;8.30;7.58;;;;;;;20.61;100.00;101031.62;5223466;55;1258104;-76
2023/06/22 02:52:53;;;;;;;8.98;8.18;;;;;;;20.72;100.00;101032.59;5152428;55;1248241;-72
2023/06/22 02:57:59;;;;;;;12.60;11.43;;;;;;;20.66;100.00;101030.58;5228230;55;1257507;-78
2023/06/22 03:03:05;;;;;;;15.03;12.75;;;;;;;20.65;100.00;101039.65;5200417;56;1145159;-79
2023/06/22 03:08:11;;;;;;;10.32;9.35;;;;;;;20.66;100.00;101038.14;5176428;55;1145010;-72
2023/06/22 03:13:17;;;;;;;12.70;9.60;;;;;;;20.54;100.00;101039.52;5168574;54;1142963;-72
2023/06/22 03:18:23;;;;;;;14.03;10.85;;;;;;;20.49;100.00;101036.99;5158139;55;1143202;-79
2023/06/22 03:23:29;;;;;;;14.23;11.00;;;;;;;20.38;100.00;101036.85;5131859;55;1145111;-77
2023/06/22 03:28:34;;;;;;;13.07;11.87;;;;;;;20.35;100.00;101051.42;5143037;55;1208963;-76
2023/06/22 03:33:40;;;;;;;15.20;11.75;;;;;;;20.30;100.00;101055.65;5186055;54;1145298;-73
2023/06/22 03:38:47;;;;;;;11.90;10.70;;;;;;;20.40;100.00;101058.18;5206877;56;1145114;-79
2023/06/22 03:43:53;;;;;;;12.07;8.90;;;;;;;20.26;100.00;101051.61;5150523;55;1145052;-73
2023/06/22 03:48:59;;;;;;;9.43;8.53;;;;;;;20.19;100.00;101059.49;5153151;55;1142848;-79
2023/06/22 03:54:04;;;;;;;17.85;9.60;;;;;;;20.26;100.00;101056.48;5220659;54;1140837;-74
2023/06/22 03:59:10;;;;;;;10.45;9.58;;;;;;;20.07;100.00;101058.16;5195545;55;1143039;-79
2023/06/22 04:04:15;;;;;;;12.45;10.55;;;;;;;19.98;100.00;101051.95;5167451;55;1143023;-79
2023/06/22 04:09:21;;;;;;;11.60;10.40;;;;;;;19.98;100.00;101053.80;5202816;54;1145238;-80
2023/06/22 04:14:27;;;;;;;11.12;9.83;;;;;;;19.97;100.00;101054.80;5225980;54;1145220;-78
2023/06/22 04:19:32;;;;;;;14.00;10.95;;;;;;;19.92;100.00;101067.87;5211677;54;1143005;-79
2023/06/22 04:24:38;;;;;;;14.43;12.23;;;;;;;19.82;100.00;101073.91;5211653;54;1145038;-77
2023/06/22 04:29:48;;;;;;;13.30;11.22;;;;;;;19.75;100.00;101085.80;5238609;54;1144976;-69
2023/06/22 04:34:52;;;;;;;18.85;10.85;;;;;;;19.71;100.00;101084.97;5234150;53;1145166;-79
2023/06/22 04:39:58;;;;;;;19.00;11.30;;;;;;;19.70;100.00;101085.47;5232440;53;1145089;-77
2023/06/22 04:45:04;;;;;;;11.50;9.25;;;;;;;19.66;100.00;101086.80;5240104;54;1145168;-71
2023/06/22 04:50:10;;;;;;;11.55;9.70;;;;;;;19.69;100.00;101097.71;5298182;53;1142928;-73
2023/06/22 04:55:18;;;;;;;12.20;9.23;;;;;;;19.65;100.00;101095.85;5314956;54;1142849;-74
2023/06/22 05:00:23;;;;;;;13.58;9.05;;;;;;;19.70;100.00;101104.77;5303417;53;1143013;-75
2023/06/22 05:05:29;;;;;;;10.75;8.48;;;;;;;19.66;100.00;101107.77;5336079;54;1143190;-80
2023/06/22 05:10:35;;;;;;;14.58;8.73;;;;;;;19.60;100.00;101112.44;5314661;54;1142998;-76
2023/06/22 05:15:41;;;;;;;11.57;8.08;;;;;;;19.62;100.00;101110.43;5314241;54;1142996;-79
2023/06/22 05:20:46;;;;;;;10.08;7.35;;;;;;;19.64;100.00;101114.30;5336664;54;1142926;-74
2023/06/22 05:25:54;;;;;;;9.18;6.53;;;;;;;19.63;100.00;101103.22;5315789;53;1142844;-74
2023/06/22 05:31:00;;;;;;;7.17;6.53;;;;;;;19.66;100.00;101101.05;5314609;54;1140803;-75
2023/06/22 05:36:06;;;;;;;8.48;6.70;;;;;;;19.65;100.00;101101.22;5336415;54;1140904;-79
2023/06/22 05:41:11;;;;;;;11.35;6.70;;;;;;;19.75;100.00;101099.22;5315067;53;1140787;-75
2023/06/22 05:46:19;;;;;;;10.68;6.53;;;;;;;19.86;100.00;101088.69;5313993;54;1142971;-69
2023/06/22 05:51:25;;;;;;;14.63;6.00;;;;;;;19.93;100.00;101087.02;5307953;54;1143174;-74
2023/06/22 05:56:31;;;;;;;10.43;6.50;;;;;;;20.10;100.00;101087.36;5323588;54;1143056;-78
2023/06/22 06:01:37;;;;;;;10.63;5.97;;;;;;;20.23;100.00;101098.45;5302403;54;1142746;-75
2023/06/22 06:06:42;;;;;;;8.45;6.78;;;;;;;20.33;100.00;101102.30;5302288;54;1142767;-76
2023/06/22 06:11:48;;;;;;;8.60;6.36;;;;;;;20.43;100.00;101106.21;5322408;53;1141173;-79
2023/06/22 06:16:53;;;;;;;13.05;6.58;;;;;;;20.62;100.00;101097.80;5303250;54;1141173;-70
2023/06/22 06:22:00;;;;;;;13.18;7.30;;;;;;;21.01;100.00;101098.72;5302278;54;1143201;-81
2023/06/22 06:27:05;;;;;;;8.33;6.28;;;;;;;20.97;100.00;101105.44;5324078;54;1142878;-77
2023/06/22 06:32:11;;;;;;;11.80;7.22;;;;;;;20.99;100.00;101112.84;5301672;54;1140700;-74
2023/06/22 06:37:18;;;;;;;10.35;6.25;;;;;;;21.08;100.00;101120.39;5300495;54;1143026;-83
2023/06/22 06:42:24;;;;;;;10.13;6.97;;;;;;;21.04;100.00;101118.55;5302521;54;1143391;-81
2023/06/22 06:47:29;;;;;;;5.55;5.00;;;;;;;21.19;100.00;101113.80;5321345;54;1142993;-74
2023/06/22 06:52:35;;;;;;;8.85;6.53;;;;;;;21.56;100.00;101111.80;5258433;54;1141420;-75
2023/06/22 06:57:42;;;;;;;9.38;6.60;;;;;;;21.67;100.00;101111.43;5093731;55;1140987;-78
2023/06/22 07:02:48;;;;;;;21.07;6.83;;;;;;;21.83;100.00;101119.41;5093556;55;1140699;-78
2023/06/22 07:07:54;;;;;;;6.67;5.90;;;;;;;21.88;100.00;101121.55;5051224;55;1142716;-81
2023/06/22 07:13:00;;;;;;;7.25;5.50;;;;;;;21.94;100.00;101121.69;5059880;55;1140857;-77
2023/06/22 07:18:05;;;;;;;6.70;4.72;;;;;;;22.09;100.00;101117.24;5178144;55;1140958;-77
2023/06/22 07:23:11;;;;;;;9.10;6.22;;;;;;;22.15;100.00;101125.64;5133732;54;1140836;-78
2023/06/22 07:28:16;;;;;;;9.45;5.03;;;;;;;22.39;100.00;101125.44;5132358;54;1141040;-74
2023/06/22 07:33:22;;;;;;;6.73;4.33;;;;;;;22.64;100.00;101132.28;5133833;54;1140889;-76
2023/06/22 07:38:28;;;;;;;11.12;5.42;;;;;;;22.88;100.00;101127.72;5155125;55;1140886;-81
2023/06/22 07:43:36;;;;;;;7.65;4.90;;;;;;;22.78;100.00;101127.96;5135152;55;1143119;-78
2023/06/22 07:48:43;;;;;;;5.70;4.35;;;;;;;22.64;100.00;101134.14;5134386;56;1140741;-75
2023/06/22 07:53:48;;;;;;;5.73;5.03;;;;;;;22.74;100.00;101141.48;5194754;54;1141148;-75
2023/06/22 07:58:54;;;;;;;4.85;4.28;;;;;;;22.69;100.00;101127.19;5278249;54;1140833;-80
2023/06/22 08:04:00;;;;;;;5.53;4.67;;;;;;;22.68;100.00;101132.25;5216792;54;1140976;-79
2023/06/22 08:09:06;;;;;;;7.92;4.60;;;;;;;22.72;100.00;101125.98;5214161;55;1140969;-76
2023/06/22 08:14:11;;;;;;;5.92;4.62;;;;;;;22.82;100.00;101109.05;5229393;54;1140689;-76
2023/06/22 08:19:17;;;;;;;8.43;4.35;;;;;;;22.90;100.00;101113.03;5276134;54;1140784;-69
2023/06/22 08:24:23;;;;;;;5.16;4.00;;;;;;;23.02;100.00;101108.84;5116836;55;1141071;-78
2023/06/22 08:29:29;;;;;;;5.83;4.43;;;;;;;23.20;100.00;101118.43;5233919;54;1140832;-73
2023/06/22 08:34:34;;;;;;;6.67;3.70;;;;;;;23.33;100.00;101124.00;5301964;54;1141203;-75
2023/06/22 08:39:41;;;;;;;4.60;3.50;;;;;;;23.49;100.00;101124.64;5246564;54;1141001;-75
2023/06/22 08:44:46;;;;;;;8.30;4.40;;;;;;;23.52;100.00;101130.22;5231248;54;1141097;-72
2023/06/22 08:49:52;;;;;;;6.72;4.60;;;;;;;23.45;100.00;101117.94;5239679;55;1140883;-74
2023/06/22 08:54:58;;;;;;;6.22;3.45;;;;;;;23.73;100.00;101123.50;5243614;54;1140830;-78
2023/06/22 09:00:05;;;;;;;8.03;4.15;;;;;;;23.88;100.00;101126.16;5164142;55;1141039;-71
2023/06/22 09:05:11;;;;;;;3.87;3.45;;;;;;;24.18;100.00;101122.83;5184613;55;1140911;-72
2023/06/22 09:10:16;;;;;;;7.90;4.00;;;;;;;24.35;100.00;101130.20;5185381;55;1140780;-73
2023/06/22 09:15:22;;;;;;;7.02;3.30;;;;;;;24.40;100.00;101125.05;5192964;55;1140631;-71
2023/06/22 09:20:28;;;;;;;5.94;3.24;;;;;;;24.66;100.00;101117.66;5206501;55;1141121;-77
2023/06/22 09:25:34;;;;;;;4.35;3.25;;;;;;;24.67;100.00;101103.95;5236249;54;1140896;-82
2023/06/22 09:30:40;;;;;;;3.72;3.35;;;;;;;24.72;100.00;101088.48;5273561;54;1140810;-73
2023/06/22 09:35:45;;;;;;;4.25;2.70;;;;;;;24.96;100.00;101086.69;5297390;54;1140948;-73
2023/06/22 09:40:51;;;;;;;4.78;3.58;;;;;;;25.15;100.00;101085.13;5274619;54;1141142;-73
2023/06/22 09:45:56;;;;;;;3.42;3.15;;;;;;;25.37;100.00;101089.91;5275895;55;1141149;-71
2023/06/22 09:51:02;;;;;;;4.28;2.90;;;;;;;25.69;100.00;101077.03;5295477;55;1140869;-79
2023/06/22 09:56:11;;;;;;;2.92;2.62;;;;;;;26.01;100.00;101078.66;5276103;55;1140979;-77
2023/06/22 10:01:15;;;;;;;4.85;3.12;;;;;;;26.21;100.00;101068.68;5261103;55;1140895;-81
2023/06/22 10:06:21;;;;;;;3.25;2.95;;;;;;;26.14;100.00;101074.09;5188947;54;1140956;-75
2023/06/22 10:11:30;;;;;;;3.42;3.08;;;;;;;26.37;100.00;101066.94;5222681;54;1140861;-76
2023/06/22 10:16:35;;;;;;;3.02;2.77;;;;;;;26.62;100.00;101070.67;5262841;54;1141083;-80
2023/06/22 10:21:41;;;;;;;2.42;2.33;;;;;;;26.80;100.00;101074.61;5202884;54;1140974;-75
2023/06/22 10:26:46;;;;;;;3.12;2.40;;;;;;;26.96;94.89;101075.02;5150272;55;1140971;-81
2023/06/22 10:31:52;;;;;;;3.25;2.90;;;;;;;26.81;94.42;101064.06;5130364;54;1138830;-74
2023/06/22 10:36:57;;;;;;;2.75;2.35;;;;;;;27.04;95.62;101067.16;5131673;55;1138967;-74
2023/06/22 10:42:03;;;;;;;3.33;2.75;;;;;;;27.29;97.20;101064.58;5155229;54;1138631;-76
2023/06/22 10:47:09;;;;;;;4.03;2.40;;;;;;;27.53;94.82;101062.98;5221619;55;1138935;-75
2023/06/22 10:52:14;;;;;;;2.65;2.42;;;;;;;27.61;91.49;101066.34;5221166;54;1138789;-75
2023/06/22 10:57:20;;;;;;;4.65;2.45;;;;;;;27.50;90.72;101063.45;5223712;53;1138743;-77
2023/06/22 11:02:28;;;;;;;3.55;2.80;;;;;;;27.62;92.88;101058.50;5297252;53;1138919;-72
2023/06/22 11:07:33;;;;;;;2.98;2.67;;;;;;;27.87;93.47;101056.34;5289055;54;1138781;-79
2023/06/22 11:12:39;;;;;;;3.83;2.75;;;;;;;28.03;88.51;101048.19;5291157;54;1138872;-70
2023/06/22 11:17:44;;;;;;;4.83;2.20;;;;;;;28.05;76.13;101058.31;5263877;54;1138938;-76
2023/06/22 11:22:50;;;;;;;3.00;2.55;;;;;;;28.00;76.15;101048.92;5194433;55;1138877;-77
2023/06/22 11:27:55;;;;;;;3.08;2.42;;;;;;;28.04;74.20;101040.33;5197509;55;1138649;-74
2023/06/22 11:33:01;;;;;;;5.40;2.17;;;;;;;28.00;62.72;101039.41;5214192;55;1138857;-75
2023/06/22 11:38:07;;;;;;;2.30;2.20;;;;;;;28.02;63.73;101037.83;5197818;55;1138728;-75
2023/06/22 11:43:14;;;;;;;3.90;2.70;;;;;;;28.07;67.22;101031.73;5223028;54;1138720;-70
2023/06/22 11:48:20;;;;;;;2.70;2.50;;;;;;;28.13;63.92;101022.15;5299991;54;1138757;-75
2023/06/22 11:53:29;;;;;;;2.80;2.60;;;;;;;28.35;63.25;101024.83;5343471;54;1138890;-75
2023/06/22 11:58:34;;;;;;;3.95;2.55;;;;;;;28.57;65.04;101007.53;5313291;54;1138897;-71
2023/06/22 12:03:40;;;;;;;2.80;2.60;;;;;;;28.52;60.46;101004.67;5305471;54;1138842;-74
2023/06/22 12:08:45;;;;;;;2.80;2.52;;;;;;;28.35;55.94;101008.50;5322035;54;1138874;-80
2023/06/22 12:13:51;;;;;;;5.40;2.60;;;;;;;28.40;57.52;101005.11;5304069;53;1138722;-80
2023/06/22 12:18:56;;;;;;;3.08;2.33;;;;;;;28.72;59.98;101010.44;5302591;54;1138607;-78
2023/06/22 12:24:02;;;;;;;3.62;2.42;;;;;;;29.10;60.57;101006.13;5325544;54;1138702;-77
2023/06/22 12:29:07;;;;;;;4.62;2.80;;;;;;;29.23;55.29;100997.78;5304185;54;1138803;-73
2023/06/22 12:34:13;;;;;;;2.15;2.05;;;;;;;29.11;54.34;100995.02;5304359;54;1138800;-77
2023/06/22 12:39:18;;;;;;;5.15;2.52;;;;;;;29.28;54.53;100996.05;5302606;54;1138865;-73
2023/06/22 12:44:24;;;;;;;3.00;2.80;;;;;;;29.34;52.27;100996.46;5275020;54;1139269;-80
2023/06/22 12:49:30;;;;;;;2.80;2.60;;;;;;;29.43;50.16;100990.73;5210836;54;1138743;-75
2023/06/22 12:54:35;;;;;;;2.70;2.50;;;;;;;29.44;49.95;100988.31;5211649;54;1138925;-73
2023/06/22 12:59:41;;;;;;;3.90;2.83;;;;;;;29.33;52.10;100982.54;5234727;54;1138878;-83
2023/06/22 13:04:47;;;;;;;2.30;2.20;;;;;;;29.66;52.87;100975.80;5295272;54;1138833;-74
2023/06/22 13:09:53;;;;;;;2.60;2.40;;;;;;;29.92;50.72;100971.84;5261513;54;1138774;-70
2023/06/22 13:14:58;;;;;;;2.47;2.30;;;;;;;29.94;48.90;100974.64;5227644;55;1138435;-75
2023/06/22 13:20:04;;;;;;;2.95;2.72;;;;;;;30.02;49.55;100973.47;5208215;55;1138946;-75
2023/06/22 13:25:11;;;;;;;2.92;2.50;;;;;;;30.12;48.74;100960.59;5229448;54;1138902;-74
2023/06/22 13:30:18;;;;;;;2.58;2.34;;;;;;;30.30;47.99;100949.56;5310477;54;1139312;-78
2023/06/22 13:35:24;;;;;;;4.95;2.25;;;;;;;30.31;43.34;100941.14;5305254;54;1138767;-76
2023/06/22 13:40:30;;;;;;;4.85;2.60;;;;;;;30.35;43.92;100930.05;5116890;55;1139245;-69
2023/06/22 13:45:36;;;;;;;4.27;2.70;;;;;;;30.35;39.85;100921.87;5133407;55;1139091;-80
2023/06/22 13:50:41;;;;;;;2.90;2.10;;;;;;;30.10;37.88;100918.55;5142347;55;1138697;-80
2023/06/22 13:55:47;;;;;;;2.57;2.37;;;;;;;30.11;40.90;100916.64;5065065;56;1138939;-70
2023/06/22 14:00:53;;;;;;;4.42;2.62;;;;;;;30.28;39.09;100908.03;5280671;54;1138845;-68
2023/06/22 14:05:59;;;;;;;2.05;1.95;;;;;;;30.38;36.45;100909.11;5287005;54;1138996;-77
2023/06/22 14:11:04;;;;;;;2.35;2.20;;;;;;;30.42;37.85;100917.63;5219811;55;1138912;-77
2023/06/22 14:16:10;;;;;;;3.20;2.90;;;;;;;30.28;37.85;100927.97;5290866;54;1139299;-72
2023/06/22 14:21:16;;;;;;;4.83;2.33;;;;;;;30.08;38.09;100930.26;5335081;54;1138725;-76
2023/06/22 14:26:22;;;;;;;5.28;2.98;;;;;;;30.13;41.19;100920.80;5293862;54;1139067;-69
2023/06/22 14:31:28;;;;;;;5.03;2.73;;;;;;;30.32;39.80;100915.52;5302039;54;1138993;-73
2023/06/22 14:36:34;;;;;;;2.40;2.20;;;;;;;30.43;38.95;100906.47;5165769;55;1138942;-75
2023/06/22 14:41:39;;;;;;;2.62;2.52;;;;;;;30.52;40.13;100905.58;4962156;57;1138729;-71
2023/06/22 14:46:45;;;;;;;2.53;2.33;;;;;;;30.71;40.26;100904.34;5019647;54;1139034;-71
2023/06/22 14:51:51;;;;;;;2.67;2.47;;;;;;;30.64;37.91;100904.20;5048793;55;1138658;-74
2023/06/22 14:56:57;;;;;;;2.10;2.00;;;;;;;30.67;39.11;100907.83;5144840;54;1139010;-74
2023/06/22 15:02:02;;;;;;;2.40;2.20;;;;;;;30.83;38.78;100906.23;5196721;54;1138758;-77
2023/06/22 15:07:08;;;;;;;6.12;2.80;;;;;;;30.78;38.05;100905.59;5252203;54;1138893;-75
2023/06/22 15:12:14;;;;;;;4.25;2.40;;;;;;;30.70;38.91;100893.70;5220156;54;1138913;-69
2023/06/22 15:17:20;;;;;;;3.25;2.95;;;;;;;30.89;39.97;100894.31;5287053;54;1139152;-68
2023/06/22 15:22:25;;;;;;;3.03;2.83;;;;;;;31.04;41.42;100884.51;5288964;54;1138734;-65
2023/06/22 15:27:31;;;;;;;9.75;2.60;;;;;;;31.14;40.96;100885.28;5309732;54;1138848;-66
2023/06/22 15:32:37;;;;;;;3.00;2.60;;;;;;;31.17;40.17;100881.23;5246668;54;1138821;-69
2023/06/22 15:37:42;;;;;;;3.67;2.65;;;;;;;31.15;40.84;100877.91;5183874;55;1138951;-68
2023/06/22 15:42:52;;;;;;;2.83;2.62;;;;;;;31.17;40.11;100866.20;5165341;55;1139000;-67
2023/06/22 15:47:58;;;;;;;2.87;2.60;;;;;;;31.29;40.37;100869.16;5133131;55;1139033;-65
2023/06/22 15:53:04;;;;;;;3.55;2.55;;;;;;;31.21;38.53;100865.44;5132572;56;1139009;-65
2023/06/22 15:58:12;;;;;;;3.25;2.52;;;;;;;31.08;38.03;100865.19;5182383;54;1138562;-67
2023/06/22 16:03:17;;;;;;;5.87;2.70;;;;;;;31.02;38.41;100862.59;5207422;54;1138697;-68
2023/06/22 16:08:25;;;;;;;3.50;2.70;;;;;;;31.02;39.16;100860.70;5141215;55;1138871;-64
2023/06/22 16:13:29;;;;;;;3.95;2.98;;;;;;;31.00;39.06;100854.67;5163837;54;1139068;-65
2023/06/22 16:18:35;;;;;;;2.50;2.40;;;;;;;31.13;40.65;100852.20;5309719;54;1138825;-67
2023/06/22 16:23:41;;;;;;;3.90;3.60;;;;;;;31.03;38.20;100843.77;5288528;54;1138662;-65
2023/06/22 16:28:46;;;;;;;8.23;2.58;;;;;;;31.10;36.82;100834.92;5226625;54;1139136;-68
2023/06/22 16:33:52;;;;;;;3.65;3.35;;;;;;;31.12;38.48;100834.14;5152932;54;1139133;-65
2023/06/22 16:38:57;;;;;;;3.37;3.17;;;;;;;31.08;38.51;100837.87;5133161;54;1138722;-67
2023/06/22 16:44:05;;;;;;;2.95;2.72;;;;;;;31.02;37.55;100825.18;5133148;54;1138597;-65
2023/06/22 16:49:10;;;;;;;2.72;2.52;;;;;;;30.90;36.65;100816.77;5182855;54;1138659;-68
2023/06/22 16:54:16;;;;;;;3.02;2.72;;;;;;;30.88;37.24;100797.05;5160523;54;1138918;-66
2023/06/22 16:59:22;;;;;;;8.40;3.45;;;;;;;30.95;36.76;100793.11;5220546;54;1138603;-67
2023/06/22 17:04:31;;;;;;;2.90;2.60;;;;;;;30.89;36.96;100795.98;5220296;54;1138854;-66
2023/06/22 17:09:40;;;;;;;4.46;2.80;;;;;;;30.79;36.90;100789.81;5241124;54;1138845;-67
2023/06/22 17:14:46;;;;;;;2.87;2.67;;;;;;;30.81;37.61;100776.74;5158973;54;1138994;-67
2023/06/22 17:19:52;;;;;;;3.72;3.27;;;;;;;30.77;36.09;100771.47;5053370;56;1138842;-64
2023/06/22 17:24:57;;;;;;;7.47;3.05;;;;;;;30.61;36.57;100764.08;5165084;56;1138674;-68
2023/06/22 17:30:09;;;;;;;7.42;2.80;;;;;;;30.53;36.13;100754.90;5145021;56;1138737;-65
2023/06/22 17:35:15;;;;;;;3.22;2.92;;;;;;;30.44;35.97;100744.36;5143429;56;1139195;-68
2023/06/22 17:40:24;;;;;;;2.92;2.67;;;;;;;30.39;36.70;100736.09;5145186;55;1139178;-65
2023/06/22 17:45:29;;;;;;;4.30;2.87;;;;;;;30.32;36.25;100738.13;5187842;55;1138502;-68
2023/06/22 17:50:42;;;;;;;4.40;2.83;;;;;;;30.31;36.61;100743.83;5145455;56;1138812;-68
2023/06/22 17:55:47;;;;;;;3.00;2.80;;;;;;;30.27;35.95;100739.91;5145145;56;1138922;-67
2023/06/22 18:00:53;;;;;;;2.97;2.77;;;;;;;30.22;36.83;100742.03;5126668;56;1138718;-68
2023/06/22 18:05:59;;;;;;;5.17;4.67;;;;;;;30.15;37.11;100744.59;5145178;56;1139284;-70
2023/06/22 18:11:07;;;;;;;3.65;3.35;;;;;;;29.78;40.53;100735.90;5086810;56;1138831;-66
2023/06/22 18:16:13;;;;;;;5.92;3.50;;;;;;;29.78;40.53;100735.90;5198661;55;1138790;-69
2023/06/22 18:21:19;;;;;;;7.37;5.30;;;;;;;29.44;41.88;100729.41;5201562;54;1138704;-74
2023/06/22 18:26:27;;;;;;;7.95;3.20;;;;;;;29.09;43.01;100719.83;5155953;54;1139135;-73
2023/06/22 18:31:36;;;;;;;3.98;3.60;;;;;;;28.85;44.49;100707.56;5226966;54;1139058;-71
2023/06/22 18:36:54;;;;;;;6.35;3.65;;;;;;;28.73;46.04;100708.55;5218365;54;1139191;-74
2023/06/22 18:42:02;;;;;;;18.00;8.98;;;;;;;28.59;46.53;100715.56;5208886;54;1139043;-73
2023/06/22 18:47:09;;;;;;;5.10;4.60;;;;;;;28.46;47.22;100697.24;5149960;55;1140836;-75
2023/06/22 18:52:27;;;;;;;3.02;2.80;;;;;;;28.20;49.14;100680.78;5218601;55;1138775;-74
2023/06/22 18:57:34;;;;;;;7.30;3.42;;;;;;;28.20;49.14;100680.78;5192541;54;1138924;-75
2023/06/22 19:02:48;;;;;;;4.30;4.00;;;;;;;28.12;49.59;100675.09;5185922;54;1138838;-74
2023/06/22 19:08:02;;;;;;;5.72;5.22;;;;;;;27.97;49.88;100681.45;5203739;54;1138800;-75
2023/06/22 19:13:29;;;;;;;10.38;4.95;;;;;;;27.80;50.54;100673.12;5175738;55;1138650;-76
2023/06/22 19:18:41;;;;;;;10.13;4.70;;;;;;;27.63;51.00;100672.08;5188619;54;1141021;-78
2023/06/22 19:23:46;;;;;;;5.12;4.33;;;;;;;27.51;51.90;100676.55;5208980;54;1141346;-71
2023/06/22 19:28:56;;;;;;;6.40;5.60;;;;;;;27.42;52.43;100676.03;5250612;55;1139117;-75
2023/06/22 19:34:08;;;;;;;10.65;6.62;;;;;;;27.29;52.50;100667.50;5229721;54;1139073;-77
2023/06/22 19:39:15;;;;;;;6.25;4.28;;;;;;;27.12;52.64;100670.49;5230069;54;1141002;-76
2023/06/22 19:44:20;;;;;;;4.72;4.17;;;;;;;26.92;53.22;100659.77;5229979;54;1139233;-75
2023/06/22 19:49:27;;;;;;;6.62;5.35;;;;;;;26.83;53.81;100663.00;5250260;55;1139066;-77
2023/06/22 19:54:33;;;;;;;9.40;4.03;;;;;;;26.76;53.94;100664.92;5229753;54;1138901;-73
2023/06/22 19:59:40;;;;;;;10.50;4.65;;;;;;;26.68;55.80;100656.55;5226436;54;1138998;-74
2023/06/22 20:04:45;;;;;;;10.40;5.28;;;;;;;26.60;56.65;100647.31;5162055;56;1140888;-78
2023/06/22 20:09:59;;;;;;;18.20;7.37;;;;;;;26.52;57.63;100648.95;5141839;56;1141015;-76
2023/06/22 20:15:28;;;;;;;9.43;6.17;;;;;;;26.25;58.47;100653.18;5125347;55;1140750;-79
2023/06/22 20:20:34;;;;;;;11.45;5.90;;;;;;;26.17;59.62;100650.71;5209667;55;1138969;-69
2023/06/22 20:25:45;;;;;;;14.54;8.00;;;;;;;26.12;60.54;100655.14;5250315;55;1140949;-73
2023/06/22 20:31:06;;;;;;;13.75;8.73;;;;;;;26.02;60.95;100644.75;5227354;55;1140997;-77
2023/06/22 20:36:13;;;;;;;11.43;8.43;;;;;;;25.98;61.00;100649.45;5229432;55;1141064;-71
2023/06/22 20:41:19;;;;;;;10.42;6.36;;;;;;;25.82;60.61;100646.72;5248405;55;1141078;-68
2023/06/22 20:46:29;;;;;;;8.73;5.12;;;;;;;25.84;61.69;100635.14;5247059;55;1140678;-78
2023/06/22 20:51:32;;;;;;;7.55;5.33;;;;;;;25.80;61.80;100644.25;5217291;54;1138677;-73
2023/06/22 20:56:38;;;;;;;5.25;4.53;;;;;;;25.65;61.84;100640.98;5211155;55;1138965;-74
2023/06/22 21:01:46;;;;;;;8.00;4.97;;;;;;;25.43;62.40;100653.92;5246184;55;1138820;-70
2023/06/22 21:06:51;;;;;;;7.92;6.15;;;;;;;25.29;63.53;100644.70;5229742;55;1138929;-76
2023/06/22 21:11:57;;;;;;;9.58;5.05;;;;;;;25.19;64.88;100640.56;5230120;55;1139268;-67
2023/06/22 21:17:02;;;;;;;9.18;5.47;;;;;;;25.14;65.46;100625.99;5249888;55;1138971;-67
2023/06/22 21:22:08;;;;;;;6.10;5.50;;;;;;;24.97;65.91;100612.59;5168962;54;1138820;-77
2023/06/22 21:27:14;;;;;;;12.45;7.28;;;;;;;24.77;66.41;100625.58;5141756;56;1138738;-73
2023/06/22 21:32:20;;;;;;;10.58;6.47;;;;;;;24.76;67.32;100633.90;5141783;56;1140750;-73
2023/06/22 21:37:26;;;;;;;10.00;5.78;;;;;;;24.73;67.77;100620.81;5221289;55;1141189;-78
2023/06/22 21:42:31;;;;;;;11.53;6.28;;;;;;;24.60;68.08;100610.80;5228277;55;1140928;-75
2023/06/22 21:47:37;;;;;;;6.50;5.90;;;;;;;24.52;68.32;100606.45;5203841;55;1140795;-72
2023/06/22 21:52:43;;;;;;;8.00;5.33;;;;;;;24.43;68.81;100611.77;5215585;55;1138779;-77
2023/06/22 21:57:49;;;;;;;10.43;5.07;;;;;;;24.23;69.18;100612.25;5230242;55;1138790;-78
2023/06/22 22:02:54;;;;;;;5.65;4.72;;;;;;;24.10;69.77;100604.09;5228851;55;1140954;-78
2023/06/22 22:08:01;;;;;;;8.53;4.75;;;;;;;24.03;70.20;100594.61;5250759;55;1138889;-81
2023/06/22 22:13:07;;;;;;;5.42;4.80;;;;;;;23.91;70.39;100598.95;5224264;55;1138783;-74
2023/06/22 22:18:13;;;;;;;7.03;4.70;;;;;;;23.95;70.94;100606.14;5230118;55;1138705;-76
2023/06/22 22:23:20;;;;;;;7.42;4.80;;;;;;;23.97;70.68;100600.02;5238720;55;1139123;-73
2023/06/22 22:28:25;;;;;;;7.85;5.37;;;;;;;23.88;71.63;100587.72;5229851;55;1138860;-71
2023/06/22 22:33:31;;;;;;;9.23;6.58;;;;;;;23.83;71.96;100582.40;5182223;54;1138730;-75
2023/06/22 22:38:41;;;;;;;7.97;5.30;;;;;;;23.71;72.11;100581.33;5161544;55;1138687;-77
2023/06/22 22:43:44;;;;;;;8.10;5.40;;;;;;;23.62;71.92;100559.61;5152275;55;1139121;-77
2023/06/22 22:48:50;;;;;;;5.17;4.30;;;;;;;23.43;70.95;100539.57;5176553;55;1138915;-73
2023/06/22 22:53:55;;;;;;;5.50;5.00;;;;;;;23.40;71.78;100551.28;5217595;55;1139095;-77
2023/06/22 22:59:01;;;;;;;8.90;5.90;;;;;;;23.50;71.70;100566.60;5239090;55;1138674;-79